Danny C — WBE8593 — position and weather

sailwx.info

Track history (hours):
 
Tides and Currents Weather Stations Pressure Air Temp Water Temp Dewpoint Dewpoint Depression Visibility Wind Speed Wind Dir Waves Ship Positions

Danny C

Owner: CASTAGNOLA, ANGELO B, SANTA BARBARA, CA. More information available from US FCC via Universal Licensing System and Coast Guard Vessel Documentation Center.

Last reported at 2018-Feb-14 16:12 UTC. Time now 2018-Feb-25 12:04 UTC.
Position N 34°24' W 119°41'.
Warning: this ship's position is 10 days out of date.

Length 26 m.

MMSI: 338031982.

Date/timePositionNaut miles runAvg speedWind from/ knotsBaromVisibWave heightAir tempDewpointWater temp
2018-Feb-14 16:12N 34°24' W 119°41'  
2018-Feb-08 23:00N 34°24' W 119°41'11 1.4
2018-Feb-08 15:30N 34°21' W 119°29'11 0.7
2018-Feb-08 01:18N 34°24' W 119°41'1 2.9
2018-Feb-08 01:00N 34°24' W 119°40'5 8.9
2018-Feb-08 00:30N 34°23' W 119°35'4 8.3
2018-Feb-07 23:59N 34°21' W 119°30'1 1.8
2018-Feb-07 23:30N 34°21' W 119°29'0 0.1
2018-Feb-07 23:00N 34°21' W 119°30'0 0.2
2018-Feb-07 22:27N 34°21' W 119°30'0 0.4
2018-Feb-07 21:57N 34°21' W 119°30'0 0.4
2018-Feb-07 21:30N 34°20' W 119°30'10 0.6
2018-Feb-07 04:45N 34°24' W 119°41'2 6.4
2018-Feb-07 04:28N 34°23' W 119°39'5 9.2
2018-Feb-07 03:57N 34°21' W 119°35'4 8.6
2018-Feb-07 03:28N 34°18' W 119°31'4 8.5
2018-Feb-07 02:58N 34°16' W 119°26'4 8.5
2018-Feb-07 02:29N 34°14' W 119°22'4 8.5
2018-Feb-07 02:00N 34°11' W 119°18'4 8.2
2018-Feb-07 01:30N 34°09' W 119°14'2 3.3
2018-Feb-07 01:00N 34°09' W 119°12'0 0.0
2018-Feb-07 00:30N 34°09' W 119°12'0 0.0
2018-Feb-07 00:00N 34°09' W 119°12'0 0.0
2018-Feb-06 23:30N 34°09' W 119°12'0 0.0
2018-Feb-06 23:00N 34°09' W 119°12'0 0.0
2018-Feb-06 22:30N 34°09' W 119°12'0 0.0
2018-Feb-06 22:00N 34°09' W 119°12'0 0.0
2018-Feb-06 21:30N 34°09' W 119°12'0 0.0
2018-Feb-06 21:00N 34°09' W 119°12'0 0.0
2018-Feb-06 20:30N 34°09' W 119°12'0 0.0
2018-Feb-06 20:00N 34°09' W 119°12'0 0.0
2018-Feb-06 19:30N 34°09' W 119°12'0 0.0
2018-Feb-06 19:00N 34°09' W 119°12'0 0.0
2018-Feb-06 18:30N 34°09' W 119°12'0 0.0
2018-Feb-06 18:00N 34°09' W 119°12'0 0.0
2018-Feb-06 17:30N 34°09' W 119°12'0 0.0
2018-Feb-06 17:00N 34°09' W 119°12'0 0.0
2018-Feb-06 16:29N 34°09' W 119°12'0 0.0
2018-Feb-06 16:00N 34°09' W 119°12'0 0.0
2018-Feb-06 15:30N 34°09' W 119°12'3 5.1
2018-Feb-06 15:00N 34°09' W 119°15'5 9.1
2018-Feb-06 14:29N 34°12' W 119°20'4 9.0
2018-Feb-06 14:00N 34°15' W 119°24'  
Track history (hours):
 
Tides and Currents Weather Stations Pressure Air Temp Water Temp Dewpoint Dewpoint Depression Visibility Wind Speed Wind Dir Waves Ship Positions

Danny C

Owner: CASTAGNOLA, ANGELO B, SANTA BARBARA, CA. More information available from US FCC via Universal Licensing System and Coast Guard Vessel Documentation Center.

Last reported at 2018-Feb-14 16:12 UTC. Time now 2018-Feb-25 12:04 UTC.
Position N 34°24' W 119°41'.
Warning: this ship's position is 10 days out of date.

Length 26 m.

MMSI: 338031982.

Date/timePositionNaut miles runAvg speedWind from/ knotsBaromVisibWave heightAir tempDewpointWater temp
2018-Feb-14 16:12N 34°24' W 119°41'  
2018-Feb-08 23:00N 34°24' W 119°41'11 1.4
2018-Feb-08 15:30N 34°21' W 119°29'11 0.7
2018-Feb-08 01:18N 34°24' W 119°41'1 2.9
2018-Feb-08 01:00N 34°24' W 119°40'5 8.9
2018-Feb-08 00:30N 34°23' W 119°35'4 8.3
2018-Feb-07 23:59N 34°21' W 119°30'1 1.8
2018-Feb-07 23:30N 34°21' W 119°29'0 0.1
2018-Feb-07 23:00N 34°21' W 119°30'0 0.2
2018-Feb-07 22:27N 34°21' W 119°30'0 0.4
2018-Feb-07 21:57N 34°21' W 119°30'0 0.4
2018-Feb-07 21:30N 34°20' W 119°30'10 0.6
2018-Feb-07 04:45N 34°24' W 119°41'2 6.4
2018-Feb-07 04:28N 34°23' W 119°39'5 9.2
2018-Feb-07 03:57N 34°21' W 119°35'4 8.6
2018-Feb-07 03:28N 34°18' W 119°31'4 8.5
2018-Feb-07 02:58N 34°16' W 119°26'4 8.5
2018-Feb-07 02:29N 34°14' W 119°22'4 8.5
2018-Feb-07 02:00N 34°11' W 119°18'4 8.2
2018-Feb-07 01:30N 34°09' W 119°14'2 3.3
2018-Feb-07 01:00N 34°09' W 119°12'0 0.0
2018-Feb-07 00:30N 34°09' W 119°12'0 0.0
2018-Feb-07 00:00N 34°09' W 119°12'0 0.0
2018-Feb-06 23:30N 34°09' W 119°12'0 0.0
2018-Feb-06 23:00N 34°09' W 119°12'0 0.0
2018-Feb-06 22:30N 34°09' W 119°12'0 0.0
2018-Feb-06 22:00N 34°09' W 119°12'0 0.0
2018-Feb-06 21:30N 34°09' W 119°12'0 0.0
2018-Feb-06 21:00N 34°09' W 119°12'0 0.0
2018-Feb-06 20:30N 34°09' W 119°12'0 0.0
2018-Feb-06 20:00N 34°09' W 119°12'0 0.0
2018-Feb-06 19:30N 34°09' W 119°12'0 0.0
2018-Feb-06 19:00N 34°09' W 119°12'0 0.0
2018-Feb-06 18:30N 34°09' W 119°12'0 0.0
2018-Feb-06 18:00N 34°09' W 119°12'0 0.0
2018-Feb-06 17:30N 34°09' W 119°12'0 0.0
2018-Feb-06 17:00N 34°09' W 119°12'0 0.0
2018-Feb-06 16:29N 34°09' W 119°12'0 0.0
2018-Feb-06 16:00N 34°09' W 119°12'0 0.0
2018-Feb-06 15:30N 34°09' W 119°12'3 5.1
2018-Feb-06 15:00N 34°09' W 119°15'5 9.1
2018-Feb-06 14:29N 34°12' W 119°20'4 9.0
2018-Feb-06 14:00N 34°15' W 119°24'  

Dump ship's entire track history